Time;durP1;ratioP1;P1;durP2;ratioP2;P2;SDS_P1;SDS_P2;PMS_P1;PMS_P2;Temp;Humidity;BMP_temperature;BMP_pressure;BME280_temperature;BME280_humidity;BME280_pressure;Samples;Min_cycle;Max_cycle;Signal;HPM_P1;HPM_P2
2024/02/09 00:00:35;;;;;;;21.95;2.85;;;;;;;;;;5030349;28;20033;-67
2024/02/09 00:03:01;;;;;;;25.10;3.33;;;;;;;;;;5028962;28;20060;-67
2024/02/09 00:05:26;;;;;;;25.17;2.63;;;;;;;;;;5029381;28;20053;-67
2024/02/09 00:07:52;;;;;;;20.75;2.78;;;;;;;;;;5029441;28;20045;-67
2024/02/09 00:10:18;;;;;;;27.02;2.60;;;;;;;;;;5029425;28;20142;-68
2024/02/09 00:12:44;;;;;;;24.13;2.65;;;;;;;;;;5029475;28;20041;-67
2024/02/09 00:15:09;;;;;;;24.10;3.03;;;;;;;;;;5029819;28;20031;-67
2024/02/09 00:17:36;;;;;;;19.10;2.45;;;;;;;;;;5028773;28;20385;-67
2024/02/09 00:20:07;;;;;;;31.25;3.42;;;;;;;;;;5024766;28;20034;-67
2024/02/09 00:22:39;;;;;;;15.85;2.55;;;;;;;;;;5024654;28;20121;-67
2024/02/09 00:25:08;;;;;;;38.22;3.65;;;;;;;;;;5029344;28;20610;-67
2024/02/09 00:27:37;;;;;;;32.75;3.70;;;;;;;;;;5012046;28;20037;-67
2024/02/09 00:30:06;;;;;;;33.17;3.63;;;;;;;;;;5011380;28;20037;-68
2024/02/09 00:32:35;;;;;;;28.83;3.13;;;;;;;;;;5027910;28;20037;-67
2024/02/09 00:35:00;;;;;;;34.08;3.05;;;;;;;;;;5028533;28;20045;-68
2024/02/09 00:37:26;;;;;;;30.75;2.78;;;;;;;;;;5024254;28;20079;-67
2024/02/09 00:39:52;;;;;;;37.88;3.40;;;;;;;;;;5035670;28;20043;-66
2024/02/09 00:42:18;;;;;;;35.45;3.67;;;;;;;;;;5033610;28;20044;-67
2024/02/09 00:44:43;;;;;;;42.22;4.60;;;;;;;;;;5041158;28;20057;-67
2024/02/09 00:47:09;;;;;;;32.10;3.22;;;;;;;;;;5031769;28;20388;-67
2024/02/09 00:49:35;;;;;;;33.10;3.28;;;;;;;;;;5031988;28;20037;-68
2024/02/09 00:52:01;;;;;;;31.50;3.00;;;;;;;;;;5021418;28;20090;-67
2024/02/09 00:54:26;;;;;;;44.55;3.55;;;;;;;;;;5033186;28;20690;-66
2024/02/09 00:56:53;;;;;;;33.05;3.38;;;;;;;;;;5031363;28;20041;-67
2024/02/09 00:59:18;;;;;;;40.65;4.15;;;;;;;;;;5014413;28;20037;-67
2024/02/09 01:01:46;;;;;;;30.80;3.15;;;;;;;;;;5032793;28;20034;-68
2024/02/09 01:04:12;;;;;;;45.03;3.70;;;;;;;;;;5032828;28;20041;-67
2024/02/09 01:06:39;;;;;;;26.25;2.88;;;;;;;;;;5033620;28;20495;-67
2024/02/09 01:09:06;;;;;;;36.15;3.20;;;;;;;;;;5034193;28;20061;-67
2024/02/09 01:11:32;;;;;;;23.90;2.67;;;;;;;;;;5022744;28;20113;-68
2024/02/09 02:46:24;;;;;;;24.77;2.55;;;;;;;;;;5030807;28;20055;-67
2024/02/09 03:05:25;;;;;;;30.08;2.50;;;;;;;;;;5021010;28;20056;-67
2024/02/09 03:07:53;;;;;;;27.02;2.47;;;;;;;;;;5039286;28;20030;-67
2024/02/09 03:10:21;;;;;;;37.22;2.20;;;;;;;;;;5028259;28;20030;-68
2024/02/09 03:12:47;;;;;;;19.48;2.13;;;;;;;;;;5030387;28;20517;-68
2024/02/09 03:15:14;;;;;;;27.20;2.28;;;;;;;;;;5032872;28;20180;-67
2024/02/09 03:17:40;;;;;;;28.15;2.90;;;;;;;;;;5012411;28;20063;-67
2024/02/09 03:20:07;;;;;;;29.77;2.60;;;;;;;;;;5030229;28;20481;-67
2024/02/09 03:22:33;;;;;;;28.38;3.25;;;;;;;;;;5030161;28;20043;-68
2024/02/09 03:25:02;;;;;;;28.02;2.28;;;;;;;;;;5029650;28;20034;-67
2024/02/09 03:27:31;;;;;;;27.50;2.33;;;;;;;;;;5030237;28;20033;-67
2024/02/09 03:29:56;;;;;;;22.25;2.80;;;;;;;;;;5030960;28;20041;-68
2024/02/09 03:32:22;;;;;;;25.65;2.10;;;;;;;;;;5030293;28;20041;-68
2024/02/09 03:34:49;;;;;;;19.52;2.28;;;;;;;;;;5029993;28;20388;-67
2024/02/09 03:37:14;;;;;;;31.38;3.40;;;;;;;;;;5025269;28;20083;-68
2024/02/09 03:39:39;;;;;;;42.78;2.60;;;;;;;;;;5028763;28;20484;-67
2024/02/09 03:42:05;;;;;;;20.90;2.15;;;;;;;;;;5030257;28;20032;-67
2024/02/09 03:44:30;;;;;;;21.73;2.53;;;;;;;;;;5029742;28;20060;-67
2024/02/09 03:46:58;;;;;;;52.38;2.80;;;;;;;;;;5029466;28;20120;-68
2024/02/09 03:49:23;;;;;;;30.67;2.50;;;;;;;;;;5029985;28;20036;-67
2024/02/09 03:51:48;;;;;;;39.63;2.60;;;;;;;;;;5024857;28;20033;-67
2024/02/09 03:54:14;;;;;;;31.17;2.22;;;;;;;;;;5029430;28;20424;-68
2024/02/09 03:56:39;;;;;;;27.23;2.67;;;;;;;;;;5016601;28;20609;-67
2024/02/09 03:59:06;;;;;;;22.52;2.17;;;;;;;;;;5029825;28;20041;-68
2024/02/09 04:01:34;;;;;;;36.72;2.45;;;;;;;;;;5029059;28;20033;-67
2024/02/09 04:04:00;;;;;;;28.33;2.45;;;;;;;;;;5029039;28;20677;-68
2024/02/09 04:06:29;;;;;;;34.83;2.65;;;;;;;;;;5029143;28;20056;-67
2024/02/09 04:08:56;;;;;;;26.88;2.22;;;;;;;;;;5029369;28;20041;-67
2024/02/09 04:11:24;;;;;;;24.75;2.35;;;;;;;;;;5029631;28;20037;-67
2024/02/09 04:13:50;;;;;;;39.10;2.88;;;;;;;;;;5031028;28;20060;-68
2024/02/09 04:16:19;;;;;;;32.38;2.80;;;;;;;;;;5034260;28;20502;-67
2024/02/09 04:18:48;;;;;;;30.73;2.38;;;;;;;;;;5033366;28;20033;-67
2024/02/09 04:21:16;;;;;;;30.40;2.58;;;;;;;;;;5033822;28;20110;-68
2024/02/09 04:23:42;;;;;;;30.75;2.13;;;;;;;;;;5033074;28;20029;-68
2024/02/09 04:26:08;;;;;;;37.28;3.25;;;;;;;;;;5034131;28;20059;-68
2024/02/09 04:28:34;;;;;;;33.63;2.33;;;;;;;;;;5033597;28;20102;-67
2024/02/09 04:30:59;;;;;;;33.95;2.30;;;;;;;;;;5032306;28;20120;-68
2024/02/09 04:33:24;;;;;;;32.22;2.65;;;;;;;;;;5033157;28;20034;-67
2024/02/09 04:35:50;;;;;;;16.15;1.67;;;;;;;;;;5032933;28;20037;-67
2024/02/09 04:38:15;;;;;;;35.75;2.45;;;;;;;;;;5032719;28;20537;-67
2024/02/09 04:40:41;;;;;;;42.80;2.72;;;;;;;;;;5032294;28;20506;-68
2024/02/09 04:43:07;;;;;;;30.17;2.28;;;;;;;;;;5013809;28;20040;-67
2024/02/09 04:45:32;;;;;;;24.55;2.22;;;;;;;;;;5033241;28;20625;-67
2024/02/09 04:47:57;;;;;;;23.90;2.22;;;;;;;;;;5032396;28;20045;-67
2024/02/09 04:50:23;;;;;;;30.35;2.33;;;;;;;;;;5032674;28;20033;-68
2024/02/09 04:52:51;;;;;;;12.13;1.90;;;;;;;;;;5032965;28;20045;-68
2024/02/09 04:55:17;;;;;;;18.52;1.65;;;;;;;;;;5032547;28;20102;-67
2024/02/09 04:57:43;;;;;;;21.35;2.00;;;;;;;;;;5036183;28;20132;-66
2024/02/09 05:00:09;;;;;;;34.17;2.58;;;;;;;;;;5032508;28;20172;-67
2024/02/09 05:02:35;;;;;;;15.02;2.20;;;;;;;;;;5032353;28;20104;-68
2024/02/09 05:05:00;;;;;;;23.50;2.03;;;;;;;;;;5035979;28;20442;-67
2024/02/09 05:07:26;;;;;;;12.15;1.83;;;;;;;;;;5033564;28;20045;-67
2024/02/09 05:09:51;;;;;;;31.42;2.28;;;;;;;;;;5032613;28;20036;-67
2024/02/09 05:12:17;;;;;;;27.40;2.20;;;;;;;;;;5032781;28;20044;-67
2024/02/09 05:14:43;;;;;;;15.65;1.85;;;;;;;;;;5037373;28;21143;-67
2024/02/09 05:17:08;;;;;;;21.73;1.95;;;;;;;;;;5032383;28;20041;-67
2024/02/09 05:19:36;;;;;;;18.30;1.77;;;;;;;;;;5032012;28;20037;-68
2024/02/09 05:22:04;;;;;;;13.88;1.48;;;;;;;;;;5032536;28;20033;-67
2024/02/09 05:24:30;;;;;;;11.20;1.23;;;;;;;;;;5031770;28;20043;-67
2024/02/09 05:26:55;;;;;;;4.70;1.20;;;;;;;;;;5035676;28;20041;-67
2024/02/09 05:29:20;;;;;;;7.18;1.05;;;;;;;;;;5015777;28;20038;-67
2024/02/09 05:31:46;;;;;;;4.95;1.13;;;;;;;;;;5034595;28;20480;-67
2024/02/09 05:34:11;;;;;;;14.30;1.42;;;;;;;;;;5032324;28;20496;-67
2024/02/09 05:36:37;;;;;;;9.00;1.42;;;;;;;;;;5032080;28;20041;-67
2024/02/09 05:39:02;;;;;;;3.90;1.10;;;;;;;;;;5035346;28;20521;-67
2024/02/09 05:41:28;;;;;;;7.55;0.85;;;;;;;;;;5030286;28;20040;-67
2024/02/09 05:43:54;;;;;;;5.68;0.95;;;;;;;;;;5032085;28;20038;-68
2024/02/09 05:46:20;;;;;;;8.75;1.02;;;;;;;;;;5032453;28;20599;-68
2024/02/09 05:48:47;;;;;;;9.88;1.15;;;;;;;;;;5033222;28;20038;-67
2024/02/09 05:51:14;;;;;;;7.78;0.98;;;;;;;;;;5014492;28;20069;-67
2024/02/09 05:53:43;;;;;;;4.82;0.93;;;;;;;;;;5033149;28;20040;-67
2024/02/09 05:56:21;;;;;;;2.20;0.77;;;;;;;;;;5031294;28;20044;-67
2024/02/09 05:58:54;;;;;;;7.47;0.75;;;;;;;;;;5030392;28;20080;-67
2024/02/09 06:01:20;;;;;;;3.17;0.70;;;;;;;;;;5031142;28;20060;-67
2024/02/09 06:03:46;;;;;;;4.63;0.70;;;;;;;;;;5020725;28;20115;-68
2024/02/09 06:06:12;;;;;;;4.65;0.98;;;;;;;;;;5030627;28;20061;-67
2024/02/09 06:08:40;;;;;;;4.13;0.30;;;;;;;;;;5031421;28;20047;-67
2024/02/09 06:11:06;;;;;;;1.05;0.50;;;;;;;;;;5022530;28;20041;-67
2024/02/09 06:13:31;;;;;;;6.00;0.80;;;;;;;;;;5031255;28;20037;-67
2024/02/09 06:16:00;;;;;;;2.17;0.82;;;;;;;;;;5032221;28;20069;-67
2024/02/09 06:18:28;;;;;;;4.13;0.80;;;;;;;;;;5034371;28;20045;-67
2024/02/09 06:20:55;;;;;;;8.95;0.85;;;;;;;;;;5031262;28;20037;-67
2024/02/09 06:23:26;;;;;;;5.85;1.20;;;;;;;;;;5034543;28;20171;-67
2024/02/09 06:25:52;;;;;;;4.30;1.08;;;;;;;;;;5029991;28;20045;-67
2024/02/09 06:28:19;;;;;;;4.65;0.90;;;;;;;;;;5029727;28;20036;-67
2024/02/09 06:30:47;;;;;;;9.57;1.10;;;;;;;;;;5030450;28;20098;-68
2024/02/09 06:33:16;;;;;;;4.05;0.80;;;;;;;;;;5031187;28;20033;-67
2024/02/09 06:35:43;;;;;;;3.20;0.50;;;;;;;;;;5030581;28;20037;-67
2024/02/09 06:38:09;;;;;;;4.53;0.93;;;;;;;;;;5030505;28;20041;-67
2024/02/09 06:40:34;;;;;;;4.25;0.50;;;;;;;;;;5038752;28;20167;-67
2024/02/09 06:43:00;;;;;;;2.45;0.60;;;;;;;;;;5029854;28;20072;-67
2024/02/09 06:45:25;;;;;;;6.72;0.90;;;;;;;;;;5030940;28;20040;-66
2024/02/09 06:47:50;;;;;;;0.90;0.50;;;;;;;;;;5030816;28;20120;-67
2024/02/09 06:50:16;;;;;;;0.63;0.30;;;;;;;;;;5029678;28;20029;-66
2024/02/09 06:52:43;;;;;;;2.17;0.40;;;;;;;;;;5031048;28;20143;-68
2024/02/09 06:55:11;;;;;;;1.77;0.50;;;;;;;;;;5030690;28;20045;-67
2024/02/09 06:57:43;;;;;;;4.85;0.17;;;;;;;;;;5023950;28;20033;-67
2024/02/09 07:00:13;;;;;;;2.85;0.20;;;;;;;;;;5029790;28;20049;-67
2024/02/09 07:02:39;;;;;;;3.42;1.40;;;;;;;;;;5026064;28;20067;-67
2024/02/09 07:05:08;;;;;;;0.35;0.20;;;;;;;;;;5031035;28;20045;-67
2024/02/09 07:07:38;;;;;;;0.22;0.20;;;;;;;;;;5029112;28;20045;-67
2024/02/09 07:10:04;;;;;;;1.17;0.40;;;;;;;;;;5029924;28;20041;-67
2024/02/09 07:12:29;;;;;;;0.95;0.25;;;;;;;;;;5030019;28;20083;-67
2024/02/09 07:14:55;;;;;;;0.47;0.20;;;;;;;;;;5030409;28;20041;-67
2024/02/09 07:17:23;;;;;;;4.10;0.40;;;;;;;;;;5030574;28;20563;-66
2024/02/09 07:19:48;;;;;;;3.45;0.70;;;;;;;;;;5030997;28;20083;-67
2024/02/09 07:22:14;;;;;;;1.48;0.45;;;;;;;;;;5030056;28;20033;-67
2024/02/09 07:24:39;;;;;;;1.65;0.90;;;;;;;;;;5030636;28;20054;-67
2024/02/09 07:27:04;;;;;;;9.25;0.80;;;;;;;;;;5030185;28;20033;-67
2024/02/09 07:29:32;;;;;;;3.28;0.40;;;;;;;;;;5029901;28;20120;-67
2024/02/09 07:31:57;;;;;;;1.33;0.30;;;;;;;;;;5029233;28;20064;-68
2024/02/09 07:34:23;;;;;;;1.10;0.50;;;;;;;;;;5030168;28;20069;-67
2024/02/09 07:36:48;;;;;;;7.47;0.93;;;;;;;;;;5029904;28;20693;-68
2024/02/09 07:39:13;;;;;;;5.80;0.70;;;;;;;;;;5030149;28;20548;-68
2024/02/09 07:41:39;;;;;;;11.93;1.73;;;;;;;;;;5030322;28;20103;-67
2024/02/09 07:44:04;;;;;;;5.15;1.13;;;;;;;;;;5030067;28;20630;-67
2024/02/09 07:46:31;;;;;;;10.38;1.60;;;;;;;;;;5030312;28;20045;-66
2024/02/09 07:48:57;;;;;;;8.50;0.93;;;;;;;;;;5030178;28;20121;-67
2024/02/09 07:51:22;;;;;;;14.82;2.17;;;;;;;;;;5028630;28;20124;-67
2024/02/09 07:53:52;;;;;;;16.67;6.15;;;;;;;;;;5027631;28;20120;-67
2024/02/09 07:56:19;;;;;;;7.88;5.05;;;;;;;;;;5029170;28;20140;-68
2024/02/09 07:58:44;;;;;;;2.55;0.80;;;;;;;;;;5018481;28;20035;-68
2024/02/09 08:01:10;;;;;;;11.85;1.42;;;;;;;;;;5029198;28;20132;-68
2024/02/09 08:03:38;;;;;;;6.40;1.02;;;;;;;;;;5029634;28;20029;-67
2024/02/09 08:06:04;;;;;;;7.10;0.80;;;;;;;;;;5028357;28;20055;-68
2024/02/09 08:08:29;;;;;;;7.25;1.00;;;;;;;;;;5029220;28;20048;-68
2024/02/09 08:10:55;;;;;;;3.97;0.90;;;;;;;;;;5029650;28;20029;-68
2024/02/09 08:13:20;;;;;;;3.28;1.00;;;;;;;;;;5029132;28;20044;-68
2024/02/09 08:15:46;;;;;;;3.47;1.02;;;;;;;;;;5027025;28;20077;-68
2024/02/09 08:18:11;;;;;;;4.45;1.77;;;;;;;;;;5029889;28;20117;-67
2024/02/09 08:20:36;;;;;;;4.43;1.27;;;;;;;;;;5029552;28;20033;-67
2024/02/09 08:23:02;;;;;;;6.80;1.50;;;;;;;;;;5029519;28;20041;-67
2024/02/09 08:25:28;;;;;;;14.25;1.92;;;;;;;;;;5029284;28;20033;-67
2024/02/09 08:27:53;;;;;;;3.88;0.95;;;;;;;;;;5027862;28;20049;-67
2024/02/09 08:30:18;;;;;;;7.85;1.55;;;;;;;;;;5029086;28;20037;-67
2024/02/09 08:32:44;;;;;;;11.13;2.80;;;;;;;;;;5029850;28;20037;-67
2024/02/09 08:35:09;;;;;;;5.13;1.50;;;;;;;;;;5029729;28;20049;-68
2024/02/09 08:37:36;;;;;;;4.55;1.50;;;;;;;;;;5029644;28;20125;-67
2024/02/09 08:40:01;;;;;;;9.38;1.30;;;;;;;;;;5029400;28;20038;-68
2024/02/09 08:42:27;;;;;;;5.38;0.98;;;;;;;;;;5028904;28;20034;-67
2024/02/09 08:44:53;;;;;;;4.00;0.88;;;;;;;;;;5028972;28;20100;-68
2024/02/09 08:47:19;;;;;;;4.63;1.20;;;;;;;;;;5029046;28;20037;-68
2024/02/09 08:49:44;;;;;;;14.15;1.27;;;;;;;;;;5012069;28;20036;-67
2024/02/09 08:52:11;;;;;;;12.15;1.48;;;;;;;;;;5029599;28;20042;-67
2024/02/09 08:54:37;;;;;;;6.90;1.00;;;;;;;;;;5028394;28;20124;-67
2024/02/09 08:57:02;;;;;;;12.70;1.02;;;;;;;;;;5029848;28;20188;-68
2024/02/09 08:59:28;;;;;;;4.90;0.75;;;;;;;;;;5029855;28;20068;-67
2024/02/09 09:01:53;;;;;;;9.57;1.20;;;;;;;;;;5031852;28;20109;-68
2024/02/09 09:04:19;;;;;;;10.60;1.00;;;;;;;;;;5032590;28;20034;-67
2024/02/09 09:06:45;;;;;;;7.20;0.80;;;;;;;;;;5030602;28;20558;-68
2024/02/09 09:09:12;;;;;;;5.60;0.85;;;;;;;;;;5040840;28;20038;-67
2024/02/09 09:11:37;;;;;;;9.25;1.15;;;;;;;;;;5026036;28;20041;-67
2024/02/09 09:14:03;;;;;;;12.90;1.20;;;;;;;;;;5043155;28;20669;-68
2024/02/09 09:16:28;;;;;;;3.38;0.70;;;;;;;;;;5032447;28;20108;-68
2024/02/09 09:18:54;;;;;;;2.95;0.70;;;;;;;;;;5043991;28;20124;-67
2024/02/09 09:21:19;;;;;;;3.60;1.08;;;;;;;;;;5031901;28;20433;-67
2024/02/09 09:23:45;;;;;;;5.70;0.93;;;;;;;;;;5018753;28;20472;-67
2024/02/09 09:26:10;;;;;;;6.15;0.77;;;;;;;;;;5030293;28;20041;-67
2024/02/09 09:28:35;;;;;;;7.40;0.98;;;;;;;;;;5030280;28;20291;-67
2024/02/09 09:31:01;;;;;;;4.10;0.55;;;;;;;;;;5029741;28;20034;-68
2024/02/09 09:33:26;;;;;;;4.40;0.63;;;;;;;;;;5028520;28;20112;-67
2024/02/09 09:35:55;;;;;;;1.33;0.63;;;;;;;;;;5030680;28;20049;-67
2024/02/09 09:38:21;;;;;;;3.35;0.88;;;;;;;;;;5029821;28;20049;-68
2024/02/09 09:40:53;;;;;;;5.38;0.90;;;;;;;;;;5030343;28;20073;-67
2024/02/09 09:43:24;;;;;;;2.15;0.90;;;;;;;;;;5030583;28;20042;-67
2024/02/09 09:45:56;;;;;;;1.30;0.75;;;;;;;;;;5030734;28;20099;-68
2024/02/09 09:48:22;;;;;;;1.77;0.90;;;;;;;;;;5030340;28;20041;-68
2024/02/09 09:50:48;;;;;;;1.08;0.60;;;;;;;;;;5011038;28;20465;-68
2024/02/09 09:53:16;;;;;;;1.23;0.60;;;;;;;;;;5017915;28;20129;-68
2024/02/09 09:55:43;;;;;;;1.73;0.50;;;;;;;;;;5028995;28;20496;-68
2024/02/09 09:58:10;;;;;;;2.25;0.65;;;;;;;;;;5029352;28;20444;-68
2024/02/09 10:00:35;;;;;;;3.65;0.60;;;;;;;;;;5008324;28;20095;-67
2024/02/09 10:03:04;;;;;;;16.30;6.30;;;;;;;;;;5027174;28;20644;-68
2024/02/09 10:05:30;;;;;;;7.30;3.55;;;;;;;;;;5029359;28;20473;-68
2024/02/09 10:07:57;;;;;;;27.00;10.27;;;;;;;;;;5029067;28;20108;-68
2024/02/09 10:10:24;;;;;;;8.25;3.03;;;;;;;;;;5011215;28;20029;-67
2024/02/09 10:13:01;;;;;;;3.40;1.33;;;;;;;;;;5028130;28;20511;-67
2024/02/09 10:15:29;;;;;;;1.75;0.52;;;;;;;;;;5029591;28;20100;-68
2024/02/09 10:17:56;;;;;;;8.48;3.45;;;;;;;;;;5028213;28;20052;-68
2024/02/09 10:20:21;;;;;;;2.78;1.25;;;;;;;;;;5028933;28;20040;-67
2024/02/09 10:22:47;;;;;;;1.23;0.50;;;;;;;;;;5028147;28;20029;-67
2024/02/09 10:25:14;;;;;;;2.15;0.60;;;;;;;;;;5028838;28;20119;-67
2024/02/09 10:27:42;;;;;;;3.70;0.40;;;;;;;;;;5024817;28;20037;-67
2024/02/09 10:30:08;;;;;;;1.25;0.50;;;;;;;;;;5035285;28;20523;-69
2024/02/09 10:32:34;;;;;;;4.13;0.55;;;;;;;;;;5027884;28;20045;-68
2024/02/09 10:34:59;;;;;;;3.30;0.60;;;;;;;;;;5028963;28;20029;-69
2024/02/09 10:37:25;;;;;;;5.13;1.05;;;;;;;;;;5028273;28;20041;-68
2024/02/09 10:39:50;;;;;;;8.55;2.53;;;;;;;;;;5028779;28;20500;-68
2024/02/09 10:42:21;;;;;;;3.15;1.20;;;;;;;;;;5026230;28;20046;-68
2024/02/09 10:44:47;;;;;;;2.25;0.73;;;;;;;;;;5028874;28;20627;-67
2024/02/09 10:47:13;;;;;;;2.35;0.80;;;;;;;;;;5026215;28;20036;-68
2024/02/09 10:49:41;;;;;;;1.95;0.80;;;;;;;;;;5028902;28;20029;-68
2024/02/09 10:52:08;;;;;;;2.80;0.63;;;;;;;;;;5023276;28;20049;-68
2024/02/09 10:54:42;;;;;;;2.38;0.90;;;;;;;;;;5026110;28;20076;-68
2024/02/09 10:57:07;;;;;;;;;;;;;;;;;;5025920;28;20068;-68
2024/02/09 10:59:35;;;;;;;5.32;0.85;;;;;;;;;;5027449;28;20364;-67
2024/02/09 11:02:03;;;;;;;4.75;0.88;;;;;;;;;;5022456;28;20040;-68
2024/02/09 11:04:31;;;;;;;3.47;0.70;;;;;;;;;;5019155;28;20118;-68
2024/02/09 11:06:56;;;;;;;2.65;0.98;;;;;;;;;;5026842;28;20118;-68
2024/02/09 11:09:22;;;;;;;2.28;1.25;;;;;;;;;;5027822;28;20065;-68
2024/02/09 11:11:47;;;;;;;2.75;0.80;;;;;;;;;;5025912;28;20096;-67
2024/02/09 11:14:13;;;;;;;2.95;0.95;;;;;;;;;;5026471;28;20049;-68
2024/02/09 11:16:49;;;;;;;2.78;0.60;;;;;;;;;;5027201;28;20030;-68
2024/02/09 11:19:16;;;;;;;3.55;0.80;;;;;;;;;;5027320;28;20033;-68
2024/02/09 11:21:48;;;;;;;1.70;0.57;;;;;;;;;;5027616;28;20425;-69
2024/02/09 11:24:17;;;;;;;3.55;0.90;;;;;;;;;;5026901;28;20041;-67
2024/02/09 11:26:49;;;;;;;4.20;0.88;;;;;;;;;;5027950;28;20037;-67
2024/02/09 11:29:15;;;;;;;2.20;0.93;;;;;;;;;;5009927;28;20112;-69
2024/02/09 11:31:41;;;;;;;3.42;0.70;;;;;;;;;;5028083;28;20128;-67
2024/02/09 11:34:07;;;;;;;3.78;0.70;;;;;;;;;;5026633;28;20601;-68
2024/02/09 11:36:33;;;;;;;1.05;0.52;;;;;;;;;;5026385;28;20409;-68
2024/02/09 11:38:58;;;;;;;3.13;0.80;;;;;;;;;;5032823;28;20037;-68
2024/02/09 11:41:25;;;;;;;4.13;1.13;;;;;;;;;;5025384;28;20037;-67
2024/02/09 11:43:50;;;;;;;1.38;0.60;;;;;;;;;;5026661;28;20508;-68
2024/02/09 11:46:19;;;;;;;0.70;0.50;;;;;;;;;;5027825;28;20094;-68
2024/02/09 11:48:45;;;;;;;2.97;0.50;;;;;;;;;;5027980;28;20033;-67
2024/02/09 11:51:10;;;;;;;0.45;0.28;;;;;;;;;;5009030;28;20374;-68
2024/02/09 11:53:37;;;;;;;3.95;0.43;;;;;;;;;;5027300;28;20064;-68
2024/02/09 11:56:04;;;;;;;1.23;0.40;;;;;;;;;;5027702;28;20029;-69
2024/02/09 11:58:29;;;;;;;1.00;0.43;;;;;;;;;;5023797;28;20885;-68
2024/02/09 12:00:57;;;;;;;0.73;0.43;;;;;;;;;;5027116;28;20037;-68
2024/02/09 12:03:22;;;;;;;1.65;0.60;;;;;;;;;;5026525;28;20112;-67
2024/02/09 12:05:50;;;;;;;0.68;0.40;;;;;;;;;;5025325;28;20136;-69
2024/02/09 12:08:17;;;;;;;2.97;1.17;;;;;;;;;;5025878;28;20072;-68
2024/02/09 12:10:43;;;;;;;1.48;0.63;;;;;;;;;;5027613;28;20040;-67
2024/02/09 12:13:08;;;;;;;6.70;2.55;;;;;;;;;;5027285;28;20045;-69
2024/02/09 12:15:34;;;;;;;5.57;1.65;;;;;;;;;;5026771;28;20040;-67
2024/02/09 12:18:01;;;;;;;3.70;1.27;;;;;;;;;;5027417;28;20036;-68
2024/02/09 12:20:27;;;;;;;8.50;2.20;;;;;;;;;;5025509;28;20632;-67
2024/02/09 12:22:54;;;;;;;5.57;2.30;;;;;;;;;;5025695;28;20316;-68
2024/02/09 12:25:19;;;;;;;9.10;2.50;;;;;;;;;;5026595;28;20037;-67
2024/02/09 12:27:44;;;;;;;6.95;1.70;;;;;;;;;;5009348;28;20045;-67
2024/02/09 12:30:11;;;;;;;8.88;3.47;;;;;;;;;;5025598;28;20628;-69
2024/02/09 12:32:36;;;;;;;4.28;1.90;;;;;;;;;;5008721;28;20491;-69
2024/02/09 12:35:02;;;;;;;4.38;1.80;;;;;;;;;;5027722;28;20041;-68
2024/02/09 12:37:28;;;;;;;4.28;1.40;;;;;;;;;;5030009;28;20503;-68
2024/02/09 12:39:53;;;;;;;6.63;1.80;;;;;;;;;;5032820;28;20036;-68
2024/02/09 12:42:21;;;;;;;3.05;1.10;;;;;;;;;;5030791;28;20520;-67
2024/02/09 12:44:49;;;;;;;3.22;1.17;;;;;;;;;;5031093;28;20037;-68
2024/02/09 12:47:14;;;;;;;3.45;1.33;;;;;;;;;;5030490;28;20044;-67
2024/02/09 12:49:40;;;;;;;5.03;1.83;;;;;;;;;;5028580;28;20049;-68
2024/02/09 12:52:08;;;;;;;3.63;1.60;;;;;;;;;;5024646;28;20092;-68
2024/02/09 12:54:34;;;;;;;2.65;1.45;;;;;;;;;;5028733;28;20075;-68
2024/02/09 12:57:00;;;;;;;3.15;1.50;;;;;;;;;;5011940;28;20141;-68
2024/02/09 12:59:28;;;;;;;5.25;1.77;;;;;;;;;;5008173;28;20657;-69
2024/02/09 13:01:53;;;;;;;2.45;1.10;;;;;;;;;;5025368;28;20392;-68
2024/02/09 13:04:19;;;;;;;2.42;1.27;;;;;;;;;;5015937;28;20056;-68
2024/02/09 13:06:44;;;;;;;7.20;1.55;;;;;;;;;;5026700;28;20057;-68
2024/02/09 13:09:09;;;;;;;3.58;0.93;;;;;;;;;;5029155;28;20107;-67
2024/02/09 13:11:36;;;;;;;3.60;1.23;;;;;;;;;;5030048;28;20048;-68
2024/02/09 13:14:01;;;;;;;6.03;0.98;;;;;;;;;;5029772;28;20034;-67
2024/02/09 13:16:26;;;;;;;3.60;1.05;;;;;;;;;;5026928;28;20035;-69
2024/02/09 13:18:52;;;;;;;7.55;1.30;;;;;;;;;;5029984;28;20128;-68
2024/02/09 13:21:20;;;;;;;5.07;0.85;;;;;;;;;;5029167;28;20025;-68
2024/02/09 13:23:46;;;;;;;1.17;0.63;;;;;;;;;;5022021;28;20121;-68
2024/02/09 13:26:15;;;;;;;4.63;0.70;;;;;;;;;;5025854;28;20145;-67
2024/02/09 13:28:40;;;;;;;2.97;0.73;;;;;;;;;;5029140;28;20484;-68
2024/02/09 13:31:10;;;;;;;3.63;0.70;;;;;;;;;;5025467;28;20026;-68
2024/02/09 13:33:39;;;;;;;4.32;0.60;;;;;;;;;;5028562;28;20094;-67
2024/02/09 13:36:05;;;;;;;5.13;0.75;;;;;;;;;;5011636;28;20132;-68
2024/02/09 13:38:34;;;;;;;4.72;0.75;;;;;;;;;;5028616;28;20095;-69
2024/02/09 13:41:00;;;;;;;3.25;0.70;;;;;;;;;;5028571;28;20495;-69
2024/02/09 13:43:27;;;;;;;5.72;0.85;;;;;;;;;;5030258;28;20037;-68
2024/02/09 13:45:53;;;;;;;3.70;0.80;;;;;;;;;;5028959;28;20103;-69
2024/02/09 13:48:19;;;;;;;6.05;1.10;;;;;;;;;;5028462;28;20045;-68
2024/02/09 13:50:44;;;;;;;7.65;1.20;;;;;;;;;;5029950;28;20053;-68
2024/02/09 13:53:10;;;;;;;5.00;0.70;;;;;;;;;;5028796;28;20639;-67
2024/02/09 13:55:38;;;;;;;2.72;0.80;;;;;;;;;;5030743;28;20104;-68
2024/02/09 13:58:06;;;;;;;4.55;0.70;;;;;;;;;;5029569;28;20491;-68
2024/02/09 14:00:32;;;;;;;6.95;0.85;;;;;;;;;;5013127;28;20459;-68
2024/02/09 14:02:57;;;;;;;7.00;1.17;;;;;;;;;;5029600;28;20042;-68
2024/02/09 14:05:23;;;;;;;4.88;0.93;;;;;;;;;;5012706;28;20045;-69
2024/02/09 14:07:50;;;;;;;4.25;0.95;;;;;;;;;;5031174;28;20080;-67
2024/02/09 14:10:16;;;;;;;2.83;0.85;;;;;;;;;;5030699;28;20041;-68
2024/02/09 14:12:41;;;;;;;8.80;1.30;;;;;;;;;;5029307;28;20118;-68
2024/02/09 14:15:10;;;;;;;8.63;1.50;;;;;;;;;;5030565;28;20034;-68
2024/02/09 14:17:36;;;;;;;8.95;1.52;;;;;;;;;;5028415;28;20048;-68
2024/02/09 14:20:03;;;;;;;6.40;1.50;;;;;;;;;;5030512;28;20033;-69
2024/02/09 14:22:28;;;;;;;14.27;1.50;;;;;;;;;;5030806;28;20029;-68
2024/02/09 14:24:56;;;;;;;8.27;1.20;;;;;;;;;;5029426;28;20033;-69
2024/02/09 14:27:23;;;;;;;5.47;1.15;;;;;;;;;;5030052;28;20033;-68
2024/02/09 14:29:50;;;;;;;5.88;1.67;;;;;;;;;;5023392;28;20049;-68
2024/02/09 14:32:15;;;;;;;8.88;1.40;;;;;;;;;;5028816;28;20127;-68
2024/02/09 14:34:41;;;;;;;4.18;0.82;;;;;;;;;;5028439;28;20469;-68
2024/02/09 14:37:08;;;;;;;9.02;1.40;;;;;;;;;;5024735;28;20041;-68
2024/02/09 14:39:33;;;;;;;5.97;0.88;;;;;;;;;;5027898;28;20109;-69
2024/02/09 14:41:58;;;;;;;6.18;0.90;;;;;;;;;;5025749;28;20033;-68
2024/02/09 14:44:24;;;;;;;5.82;0.90;;;;;;;;;;5019705;28;20534;-69
2024/02/09 14:46:49;;;;;;;9.27;1.63;;;;;;;;;;5030096;28;20484;-68
2024/02/09 14:49:15;;;;;;;7.30;0.98;;;;;;;;;;5029062;28;20038;-67
2024/02/09 14:51:44;;;;;;;5.85;1.15;;;;;;;;;;5010338;28;20063;-67
2024/02/09 14:54:10;;;;;;;6.38;1.15;;;;;;;;;;5018172;28;20427;-67
2024/02/09 14:56:36;;;;;;;6.78;2.45;;;;;;;;;;5023741;28;20037;-68
2024/02/09 14:59:03;;;;;;;9.73;3.38;;;;;;;;;;5025500;28;20637;-68
2024/02/09 15:01:29;;;;;;;7.40;2.17;;;;;;;;;;5023266;28;21373;-69
2024/02/09 15:03:54;;;;;;;8.65;2.38;;;;;;;;;;5026052;28;20102;-68
2024/02/09 15:06:20;;;;;;;10.27;2.05;;;;;;;;;;5026174;28;20790;-68
2024/02/09 15:08:48;;;;;;;8.40;1.42;;;;;;;;;;5026051;28;20120;-67
2024/02/09 15:11:22;;;;;;;5.20;1.20;;;;;;;;;;5024702;28;20033;-67
2024/02/09 15:13:49;;;;;;;5.32;1.38;;;;;;;;;;5025224;28;20033;-68
2024/02/09 15:16:14;;;;;;;9.35;1.90;;;;;;;;;;5025713;28;20484;-67
2024/02/09 15:18:39;;;;;;;13.20;2.30;;;;;;;;;;5025521;28;20029;-69
2024/02/09 15:21:05;;;;;;;8.50;1.77;;;;;;;;;;5026053;28;20476;-68
2024/02/09 15:23:31;;;;;;;10.52;1.80;;;;;;;;;;5024262;28;20043;-68
2024/02/09 15:25:57;;;;;;;12.48;2.03;;;;;;;;;;5024750;28;20029;-68
2024/02/09 15:28:25;;;;;;;8.57;1.67;;;;;;;;;;5025592;28;20041;-68
2024/02/09 15:30:51;;;;;;;3.85;0.93;;;;;;;;;;5025381;28;20083;-67
2024/02/09 15:33:18;;;;;;;7.53;1.15;;;;;;;;;;5025438;28;20437;-68
2024/02/09 15:35:43;;;;;;;11.10;1.25;;;;;;;;;;5025651;28;20496;-67
2024/02/09 15:38:09;;;;;;;5.57;1.98;;;;;;;;;;5025327;28;20038;-68
2024/02/09 15:40:35;;;;;;;23.10;5.38;;;;;;;;;;5024986;28;20146;-68
2024/02/09 15:43:00;;;;;;;15.05;4.25;;;;;;;;;;5023348;28;20133;-68
2024/02/09 15:45:26;;;;;;;14.18;3.88;;;;;;;;;;5025017;28;20049;-68
2024/02/09 15:47:51;;;;;;;11.45;2.85;;;;;;;;;;5025914;28;20041;-67
2024/02/09 15:50:16;;;;;;;10.23;3.28;;;;;;;;;;5025162;28;20067;-67
2024/02/09 15:52:42;;;;;;;12.93;2.38;;;;;;;;;;5024424;28;20041;-67
2024/02/09 15:55:07;;;;;;;16.73;4.47;;;;;;;;;;5024304;28;20413;-68
2024/02/09 15:57:33;;;;;;;13.70;4.05;;;;;;;;;;5024445;28;20068;-68
2024/02/09 15:59:59;;;;;;;15.82;5.10;;;;;;;;;;5023841;28;20041;-68
2024/02/09 16:02:25;;;;;;;21.67;6.97;;;;;;;;;;5024137;28;20040;-68
2024/02/09 16:04:50;;;;;;;21.00;7.10;;;;;;;;;;5024804;28;20053;-67
2024/02/09 16:07:16;;;;;;;22.85;6.40;;;;;;;;;;5024764;28;20049;-68
2024/02/09 16:09:43;;;;;;;15.70;5.32;;;;;;;;;;5026235;28;20053;-67
2024/02/09 16:12:10;;;;;;;30.48;8.48;;;;;;;;;;5025753;28;20436;-68
2024/02/09 16:14:38;;;;;;;39.42;12.30;;;;;;;;;;5029356;28;20045;-68
2024/02/09 16:17:04;;;;;;;20.85;8.85;;;;;;;;;;5018961;28;20116;-68
2024/02/09 16:19:32;;;;;;;22.08;9.40;;;;;;;;;;5025974;28;20548;-68
2024/02/09 16:21:58;;;;;;;21.55;8.63;;;;;;;;;;5027259;28;20064;-69